sensor_id;sensor_type;location;lat;lon;timestamp;P1;durP1;ratioP1;P2;durP2;ratioP2
4313;SDS011;2170;48.794;9.182;2022-07-03T00:01:54;6.30;;;4.00;;
4313;SDS011;2170;48.794;9.182;2022-07-03T00:04:22;4.03;;;3.73;;
4313;SDS011;2170;48.794;9.182;2022-07-03T00:06:49;6.80;;;3.70;;
4313;SDS011;2170;48.794;9.182;2022-07-03T00:09:16;4.53;;;4.17;;
4313;SDS011;2170;48.794;9.182;2022-07-03T00:11:44;4.10;;;3.70;;
4313;SDS011;2170;48.794;9.182;2022-07-03T00:14:13;4.83;;;3.67;;
4313;SDS011;2170;48.794;9.182;2022-07-03T00:16:40;3.80;;;3.50;;
4313;SDS011;2170;48.794;9.182;2022-07-03T00:19:07;4.20;;;3.90;;
4313;SDS011;2170;48.794;9.182;2022-07-03T00:21:35;4.77;;;3.97;;
4313;SDS011;2170;48.794;9.182;2022-07-03T00:24:03;3.97;;;3.77;;
4313;SDS011;2170;48.794;9.182;2022-07-03T00:26:32;4.87;;;4.40;;
4313;SDS011;2170;48.794;9.182;2022-07-03T00:29:00;3.40;;;3.10;;
4313;SDS011;2170;48.794;9.182;2022-07-03T00:31:29;3.77;;;3.47;;
4313;SDS011;2170;48.794;9.182;2022-07-03T00:33:57;3.43;;;3.13;;
4313;SDS011;2170;48.794;9.182;2022-07-03T00:36:25;3.50;;;3.30;;
4313;SDS011;2170;48.794;9.182;2022-07-03T00:38:53;3.27;;;2.97;;
4313;SDS011;2170;48.794;9.182;2022-07-03T00:41:23;2.70;;;2.60;;
4313;SDS011;2170;48.794;9.182;2022-07-03T00:43:51;3.10;;;2.87;;
4313;SDS011;2170;48.794;9.182;2022-07-03T00:46:18;2.67;;;2.57;;
4313;SDS011;2170;48.794;9.182;2022-07-03T00:48:49;3.20;;;2.97;;
4313;SDS011;2170;48.794;9.182;2022-07-03T00:51:18;6.70;;;3.60;;
4313;SDS011;2170;48.794;9.182;2022-07-03T00:53:47;3.80;;;3.50;;
4313;SDS011;2170;48.794;9.182;2022-07-03T00:56:16;4.20;;;3.90;;
4313;SDS011;2170;48.794;9.182;2022-07-03T00:58:43;4.00;;;3.70;;
4313;SDS011;2170;48.794;9.182;2022-07-03T01:01:10;4.30;;;4.00;;
4313;SDS011;2170;48.794;9.182;2022-07-03T01:03:39;4.17;;;3.77;;
4313;SDS011;2170;48.794;9.182;2022-07-03T01:06:10;4.73;;;3.87;;
4313;SDS011;2170;48.794;9.182;2022-07-03T01:08:40;4.10;;;3.73;;
4313;SDS011;2170;48.794;9.182;2022-07-03T01:11:10;4.47;;;3.63;;
4313;SDS011;2170;48.794;9.182;2022-07-03T01:13:43;5.80;;;4.07;;
4313;SDS011;2170;48.794;9.182;2022-07-03T01:16:16;5.97;;;4.40;;
4313;SDS011;2170;48.794;9.182;2022-07-03T01:18:44;4.43;;;4.13;;
4313;SDS011;2170;48.794;9.182;2022-07-03T01:21:15;6.20;;;5.60;;
4313;SDS011;2170;48.794;9.182;2022-07-03T01:23:47;7.00;;;6.40;;
4313;SDS011;2170;48.794;9.182;2022-07-03T01:26:21;6.83;;;6.23;;
4313;SDS011;2170;48.794;9.182;2022-07-03T01:28:49;6.50;;;6.00;;
4313;SDS011;2170;48.794;9.182;2022-07-03T01:31:18;6.73;;;6.07;;
4313;SDS011;2170;48.794;9.182;2022-07-03T01:33:45;7.17;;;6.47;;
4313;SDS011;2170;48.794;9.182;2022-07-03T01:36:13;7.77;;;7.17;;
4313;SDS011;2170;48.794;9.182;2022-07-03T01:38:42;6.93;;;6.33;;
4313;SDS011;2170;48.794;9.182;2022-07-03T01:41:09;7.03;;;6.23;;
4313;SDS011;2170;48.794;9.182;2022-07-03T01:43:39;6.10;;;5.60;;
4313;SDS011;2170;48.794;9.182;2022-07-03T01:46:08;5.30;;;4.90;;
4313;SDS011;2170;48.794;9.182;2022-07-03T01:48:38;7.20;;;6.17;;
4313;SDS011;2170;48.794;9.182;2022-07-03T01:51:08;6.10;;;5.60;;
4313;SDS011;2170;48.794;9.182;2022-07-03T01:53:35;5.90;;;5.43;;
4313;SDS011;2170;48.794;9.182;2022-07-03T01:56:03;4.97;;;4.50;;
4313;SDS011;2170;48.794;9.182;2022-07-03T01:58:31;5.43;;;4.70;;
4313;SDS011;2170;48.794;9.182;2022-07-03T02:01:01;5.30;;;4.90;;
4313;SDS011;2170;48.794;9.182;2022-07-03T02:03:29;5.43;;;4.97;;
4313;SDS011;2170;48.794;9.182;2022-07-03T02:05:59;5.20;;;4.80;;
4313;SDS011;2170;48.794;9.182;2022-07-03T02:08:32;5.00;;;4.60;;
4313;SDS011;2170;48.794;9.182;2022-07-03T02:11:06;5.20;;;4.30;;
4313;SDS011;2170;48.794;9.182;2022-07-03T02:13:36;4.60;;;4.30;;
4313;SDS011;2170;48.794;9.182;2022-07-03T02:16:05;4.97;;;4.50;;
4313;SDS011;2170;48.794;9.182;2022-07-03T02:18:35;5.73;;;4.50;;
4313;SDS011;2170;48.794;9.182;2022-07-03T02:21:03;4.00;;;3.70;;
4313;SDS011;2170;48.794;9.182;2022-07-03T02:23:31;4.83;;;4.43;;
4313;SDS011;2170;48.794;9.182;2022-07-03T02:26:00;4.50;;;4.10;;
4313;SDS011;2170;48.794;9.182;2022-07-03T02:28:30;4.60;;;4.30;;
4313;SDS011;2170;48.794;9.182;2022-07-03T02:31:01;4.40;;;4.10;;
4313;SDS011;2170;48.794;9.182;2022-07-03T02:33:30;5.27;;;4.70;;
4313;SDS011;2170;48.794;9.182;2022-07-03T02:35:58;6.93;;;4.70;;
4313;SDS011;2170;48.794;9.182;2022-07-03T02:38:26;5.03;;;4.70;;
4313;SDS011;2170;48.794;9.182;2022-07-03T02:40:55;5.07;;;4.57;;
4313;SDS011;2170;48.794;9.182;2022-07-03T02:43:24;4.80;;;4.47;;
4313;SDS011;2170;48.794;9.182;2022-07-03T02:45:57;5.83;;;5.03;;
4313;SDS011;2170;48.794;9.182;2022-07-03T02:48:49;5.27;;;4.87;;
4313;SDS011;2170;48.794;9.182;2022-07-03T02:51:19;4.20;;;3.90;;
4313;SDS011;2170;48.794;9.182;2022-07-03T02:53:49;5.10;;;4.50;;
4313;SDS011;2170;48.794;9.182;2022-07-03T02:56:19;4.67;;;4.37;;
4313;SDS011;2170;48.794;9.182;2022-07-03T02:58:56;4.77;;;4.37;;
4313;SDS011;2170;48.794;9.182;2022-07-03T03:01:29;5.10;;;4.47;;
4313;SDS011;2170;48.794;9.182;2022-07-03T03:04:01;4.33;;;4.03;;
4313;SDS011;2170;48.794;9.182;2022-07-03T03:06:33;4.00;;;3.70;;
4313;SDS011;2170;48.794;9.182;2022-07-03T03:09:03;4.37;;;4.07;;
4313;SDS011;2170;48.794;9.182;2022-07-03T03:11:32;4.43;;;4.03;;
4313;SDS011;2170;48.794;9.182;2022-07-03T03:14:00;4.70;;;4.20;;
4313;SDS011;2170;48.794;9.182;2022-07-03T03:16:30;4.40;;;4.10;;
4313;SDS011;2170;48.794;9.182;2022-07-03T03:18:57;5.33;;;4.40;;
4313;SDS011;2170;48.794;9.182;2022-07-03T03:21:26;4.37;;;3.97;;
4313;SDS011;2170;48.794;9.182;2022-07-03T03:23:55;4.07;;;3.77;;
4313;SDS011;2170;48.794;9.182;2022-07-03T03:26:22;4.20;;;3.90;;
4313;SDS011;2170;48.794;9.182;2022-07-03T03:28:50;4.10;;;3.80;;
4313;SDS011;2170;48.794;9.182;2022-07-03T03:31:17;4.03;;;3.73;;
4313;SDS011;2170;48.794;9.182;2022-07-03T03:33:45;3.97;;;3.67;;
4313;SDS011;2170;48.794;9.182;2022-07-03T03:36:13;4.10;;;3.70;;
4313;SDS011;2170;48.794;9.182;2022-07-03T03:38:43;4.70;;;3.87;;
4313;SDS011;2170;48.794;9.182;2022-07-03T03:41:10;3.77;;;3.57;;
4313;SDS011;2170;48.794;9.182;2022-07-03T03:43:37;3.97;;;3.63;;
4313;SDS011;2170;48.794;9.182;2022-07-03T03:46:05;4.13;;;3.90;;
4313;SDS011;2170;48.794;9.182;2022-07-03T03:48:32;4.30;;;4.00;;
4313;SDS011;2170;48.794;9.182;2022-07-03T03:51:00;4.20;;;3.93;;
4313;SDS011;2170;48.794;9.182;2022-07-03T03:53:27;4.37;;;4.03;;
4313;SDS011;2170;48.794;9.182;2022-07-03T03:55:59;3.87;;;3.57;;
4313;SDS011;2170;48.794;9.182;2022-07-03T03:58:27;4.20;;;3.90;;
4313;SDS011;2170;48.794;9.182;2022-07-03T04:00:55;5.77;;;3.60;;
4313;SDS011;2170;48.794;9.182;2022-07-03T04:03:22;4.50;;;4.07;;
4313;SDS011;2170;48.794;9.182;2022-07-03T04:05:49;3.70;;;3.50;;
4313;SDS011;2170;48.794;9.182;2022-07-03T04:08:16;4.33;;;4.03;;
4313;SDS011;2170;48.794;9.182;2022-07-03T04:10:43;4.70;;;4.30;;
4313;SDS011;2170;48.794;9.182;2022-07-03T04:13:11;4.60;;;4.30;;
4313;SDS011;2170;48.794;9.182;2022-07-03T04:15:38;7.57;;;4.60;;
4313;SDS011;2170;48.794;9.182;2022-07-03T04:18:05;5.33;;;4.97;;
4313;SDS011;2170;48.794;9.182;2022-07-03T04:20:32;4.63;;;4.33;;
4313;SDS011;2170;48.794;9.182;2022-07-03T04:23:00;5.00;;;4.60;;
4313;SDS011;2170;48.794;9.182;2022-07-03T04:25:28;4.37;;;4.07;;
4313;SDS011;2170;48.794;9.182;2022-07-03T04:27:55;4.67;;;4.37;;
4313;SDS011;2170;48.794;9.182;2022-07-03T04:30:23;4.37;;;4.10;;
4313;SDS011;2170;48.794;9.182;2022-07-03T04:32:51;4.27;;;3.97;;
4313;SDS011;2170;48.794;9.182;2022-07-03T04:35:18;5.13;;;4.57;;
4313;SDS011;2170;48.794;9.182;2022-07-03T04:37:45;5.17;;;4.70;;
4313;SDS011;2170;48.794;9.182;2022-07-03T04:40:13;5.13;;;4.10;;
4313;SDS011;2170;48.794;9.182;2022-07-03T04:42:40;3.87;;;3.67;;
4313;SDS011;2170;48.794;9.182;2022-07-03T04:45:07;4.20;;;3.90;;
4313;SDS011;2170;48.794;9.182;2022-07-03T04:47:36;4.10;;;3.80;;
4313;SDS011;2170;48.794;9.182;2022-07-03T04:50:03;4.63;;;4.23;;
4313;SDS011;2170;48.794;9.182;2022-07-03T04:52:30;4.07;;;3.70;;
4313;SDS011;2170;48.794;9.182;2022-07-03T04:54:57;3.63;;;3.33;;
4313;SDS011;2170;48.794;9.182;2022-07-03T04:57:24;6.90;;;3.93;;
4313;SDS011;2170;48.794;9.182;2022-07-03T04:59:51;4.50;;;4.20;;
4313;SDS011;2170;48.794;9.182;2022-07-03T05:02:18;4.30;;;4.00;;
4313;SDS011;2170;48.794;9.182;2022-07-03T05:04:46;4.40;;;4.10;;
4313;SDS011;2170;48.794;9.182;2022-07-03T05:07:13;4.50;;;4.20;;
4313;SDS011;2170;48.794;9.182;2022-07-03T05:09:40;6.57;;;4.30;;
4313;SDS011;2170;48.794;9.182;2022-07-03T05:12:07;4.70;;;4.27;;
4313;SDS011;2170;48.794;9.182;2022-07-03T05:14:34;3.93;;;3.63;;
4313;SDS011;2170;48.794;9.182;2022-07-03T05:17:01;3.73;;;3.43;;
4313;SDS011;2170;48.794;9.182;2022-07-03T05:19:29;4.47;;;3.60;;
4313;SDS011;2170;48.794;9.182;2022-07-03T05:21:57;3.40;;;3.17;;
4313;SDS011;2170;48.794;9.182;2022-07-03T05:24:24;3.57;;;3.37;;
4313;SDS011;2170;48.794;9.182;2022-07-03T05:26:51;3.40;;;3.20;;
4313;SDS011;2170;48.794;9.182;2022-07-03T05:29:18;3.87;;;3.57;;
4313;SDS011;2170;48.794;9.182;2022-07-03T05:31:45;4.37;;;3.53;;
4313;SDS011;2170;48.794;9.182;2022-07-03T05:34:12;3.90;;;3.57;;
4313;SDS011;2170;48.794;9.182;2022-07-03T05:36:39;3.50;;;3.23;;
4313;SDS011;2170;48.794;9.182;2022-07-03T05:39:07;3.53;;;3.33;;
4313;SDS011;2170;48.794;9.182;2022-07-03T05:41:52;3.47;;;3.23;;
4313;SDS011;2170;48.794;9.182;2022-07-03T05:44:19;3.87;;;3.57;;
4313;SDS011;2170;48.794;9.182;2022-07-03T05:46:46;3.30;;;3.10;;
4313;SDS011;2170;48.794;9.182;2022-07-03T05:49:13;3.60;;;3.40;;
4313;SDS011;2170;48.794;9.182;2022-07-03T05:51:40;3.60;;;3.40;;
4313;SDS011;2170;48.794;9.182;2022-07-03T05:54:09;3.63;;;3.10;;
4313;SDS011;2170;48.794;9.182;2022-07-03T05:56:36;4.83;;;3.70;;
4313;SDS011;2170;48.794;9.182;2022-07-03T05:59:03;3.80;;;3.50;;
4313;SDS011;2170;48.794;9.182;2022-07-03T06:01:30;3.70;;;3.10;;
4313;SDS011;2170;48.794;9.182;2022-07-03T06:03:57;4.50;;;3.37;;
4313;SDS011;2170;48.794;9.182;2022-07-03T06:06:24;4.10;;;3.70;;
4313;SDS011;2170;48.794;9.182;2022-07-03T06:08:51;4.20;;;2.70;;
4313;SDS011;2170;48.794;9.182;2022-07-03T06:11:19;3.47;;;3.20;;
4313;SDS011;2170;48.794;9.182;2022-07-03T06:13:47;7.00;;;3.40;;
4313;SDS011;2170;48.794;9.182;2022-07-03T06:16:14;3.13;;;2.70;;
4313;SDS011;2170;48.794;9.182;2022-07-03T06:18:41;3.50;;;3.30;;
4313;SDS011;2170;48.794;9.182;2022-07-03T06:21:08;2.60;;;2.43;;
4313;SDS011;2170;48.794;9.182;2022-07-03T06:23:35;3.97;;;2.90;;
4313;SDS011;2170;48.794;9.182;2022-07-03T06:26:02;3.00;;;2.80;;
4313;SDS011;2170;48.794;9.182;2022-07-03T06:28:31;3.13;;;2.93;;
4313;SDS011;2170;48.794;9.182;2022-07-03T06:30:58;2.90;;;2.70;;
4313;SDS011;2170;48.794;9.182;2022-07-03T06:33:25;2.80;;;2.60;;
4313;SDS011;2170;48.794;9.182;2022-07-03T06:35:52;3.20;;;2.90;;
4313;SDS011;2170;48.794;9.182;2022-07-03T06:38:19;3.07;;;2.87;;
4313;SDS011;2170;48.794;9.182;2022-07-03T06:40:46;2.90;;;2.70;;
4313;SDS011;2170;48.794;9.182;2022-07-03T06:43:13;3.10;;;2.90;;
4313;SDS011;2170;48.794;9.182;2022-07-03T06:45:41;2.87;;;2.67;;
4313;SDS011;2170;48.794;9.182;2022-07-03T06:48:08;3.23;;;3.03;;
4313;SDS011;2170;48.794;9.182;2022-07-03T06:50:35;2.80;;;2.60;;
4313;SDS011;2170;48.794;9.182;2022-07-03T06:53:02;3.30;;;3.00;;
4313;SDS011;2170;48.794;9.182;2022-07-03T06:55:29;2.93;;;2.73;;
4313;SDS011;2170;48.794;9.182;2022-07-03T06:57:56;3.63;;;2.87;;
4313;SDS011;2170;48.794;9.182;2022-07-03T07:00:23;12.20;;;11.20;;
4313;SDS011;2170;48.794;9.182;2022-07-03T07:02:51;3.00;;;2.80;;
4313;SDS011;2170;48.794;9.182;2022-07-03T07:05:18;3.57;;;3.33;;
4313;SDS011;2170;48.794;9.182;2022-07-03T07:07:46;2.97;;;2.87;;
4313;SDS011;2170;48.794;9.182;2022-07-03T07:10:13;3.10;;;2.90;;
4313;SDS011;2170;48.794;9.182;2022-07-03T07:12:40;3.00;;;2.80;;
4313;SDS011;2170;48.794;9.182;2022-07-03T07:15:07;4.70;;;3.03;;
4313;SDS011;2170;48.794;9.182;2022-07-03T07:17:34;3.10;;;2.90;;
4313;SDS011;2170;48.794;9.182;2022-07-03T07:20:03;2.67;;;2.57;;
4313;SDS011;2170;48.794;9.182;2022-07-03T07:22:30;2.03;;;1.93;;
4313;SDS011;2170;48.794;9.182;2022-07-03T07:24:57;2.10;;;1.77;;
4313;SDS011;2170;48.794;9.182;2022-07-03T07:27:24;2.07;;;1.97;;
4313;SDS011;2170;48.794;9.182;2022-07-03T07:29:51;1.50;;;1.37;;
4313;SDS011;2170;48.794;9.182;2022-07-03T07:32:18;1.77;;;1.70;;
4313;SDS011;2170;48.794;9.182;2022-07-03T07:34:45;1.53;;;1.43;;
4313;SDS011;2170;48.794;9.182;2022-07-03T07:37:13;1.50;;;1.40;;
4313;SDS011;2170;48.794;9.182;2022-07-03T07:39:40;1.30;;;1.30;;
4313;SDS011;2170;48.794;9.182;2022-07-03T07:42:07;2.47;;;2.27;;
4313;SDS011;2170;48.794;9.182;2022-07-03T07:44:35;1.47;;;1.30;;
4313;SDS011;2170;48.794;9.182;2022-07-03T07:47:02;1.40;;;1.40;;
4313;SDS011;2170;48.794;9.182;2022-07-03T07:49:29;1.20;;;1.10;;
4313;SDS011;2170;48.794;9.182;2022-07-03T07:51:56;1.00;;;1.00;;
4313;SDS011;2170;48.794;9.182;2022-07-03T07:54:24;1.40;;;1.30;;
4313;SDS011;2170;48.794;9.182;2022-07-03T07:56:51;1.10;;;1.10;;
4313;SDS011;2170;48.794;9.182;2022-07-03T07:59:18;1.23;;;1.23;;
4313;SDS011;2170;48.794;9.182;2022-07-03T08:01:45;1.40;;;1.40;;
4313;SDS011;2170;48.794;9.182;2022-07-03T08:04:30;1.40;;;1.40;;
4313;SDS011;2170;48.794;9.182;2022-07-03T08:07:15;1.20;;;1.20;;
4313;SDS011;2170;48.794;9.182;2022-07-03T08:09:43;1.43;;;1.27;;
4313;SDS011;2170;48.794;9.182;2022-07-03T08:12:10;1.10;;;1.10;;
4313;SDS011;2170;48.794;9.182;2022-07-03T08:14:37;1.30;;;1.30;;
4313;SDS011;2170;48.794;9.182;2022-07-03T08:17:04;1.00;;;1.00;;
4313;SDS011;2170;48.794;9.182;2022-07-03T08:19:31;1.37;;;1.33;;
4313;SDS011;2170;48.794;9.182;2022-07-03T08:21:59;1.63;;;1.17;;
4313;SDS011;2170;48.794;9.182;2022-07-03T08:24:26;1.07;;;1.07;;
4313;SDS011;2170;48.794;9.182;2022-07-03T08:26:54;1.00;;;1.00;;
4313;SDS011;2170;48.794;9.182;2022-07-03T08:29:21;4.00;;;1.20;;
4313;SDS011;2170;48.794;9.182;2022-07-03T08:31:49;1.70;;;1.20;;
4313;SDS011;2170;48.794;9.182;2022-07-03T08:34:16;1.97;;;1.40;;
4313;SDS011;2170;48.794;9.182;2022-07-03T08:36:43;1.83;;;1.40;;
4313;SDS011;2170;48.794;9.182;2022-07-03T08:39:10;0.80;;;0.80;;
4313;SDS011;2170;48.794;9.182;2022-07-03T08:41:37;1.20;;;1.13;;
4313;SDS011;2170;48.794;9.182;2022-07-03T08:44:07;2.93;;;1.10;;
4313;SDS011;2170;48.794;9.182;2022-07-03T08:46:34;1.33;;;1.23;;
4313;SDS011;2170;48.794;9.182;2022-07-03T08:49:01;1.27;;;1.17;;
4313;SDS011;2170;48.794;9.182;2022-07-03T08:51:28;0.90;;;0.80;;
4313;SDS011;2170;48.794;9.182;2022-07-03T08:53:56;3.07;;;0.97;;
4313;SDS011;2170;48.794;9.182;2022-07-03T08:56:26;0.90;;;0.90;;
4313;SDS011;2170;48.794;9.182;2022-07-03T08:58:54;2.30;;;0.90;;
4313;SDS011;2170;48.794;9.182;2022-07-03T09:01:23;0.90;;;0.90;;
4313;SDS011;2170;48.794;9.182;2022-07-03T09:03:50;1.10;;;1.10;;
4313;SDS011;2170;48.794;9.182;2022-07-03T09:06:18;1.10;;;0.97;;
4313;SDS011;2170;48.794;9.182;2022-07-03T09:08:45;1.10;;;1.10;;
4313;SDS011;2170;48.794;9.182;2022-07-03T09:11:12;1.20;;;1.10;;
4313;SDS011;2170;48.794;9.182;2022-07-03T09:13:39;0.80;;;0.80;;
4313;SDS011;2170;48.794;9.182;2022-07-03T09:16:13;1.20;;;1.00;;
4313;SDS011;2170;48.794;9.182;2022-07-03T09:18:42;1.03;;;1.03;;
4313;SDS011;2170;48.794;9.182;2022-07-03T09:21:09;1.00;;;1.00;;
4313;SDS011;2170;48.794;9.182;2022-07-03T09:23:37;1.20;;;1.20;;
4313;SDS011;2170;48.794;9.182;2022-07-03T09:26:04;1.80;;;1.20;;
4313;SDS011;2170;48.794;9.182;2022-07-03T09:28:42;1.20;;;1.10;;
4313;SDS011;2170;48.794;9.182;2022-07-03T09:31:10;0.90;;;0.90;;
4313;SDS011;2170;48.794;9.182;2022-07-03T09:33:48;1.30;;;0.90;;
4313;SDS011;2170;48.794;9.182;2022-07-03T09:36:16;2.03;;;1.40;;
4313;SDS011;2170;48.794;9.182;2022-07-03T09:38:43;0.90;;;0.90;;
4313;SDS011;2170;48.794;9.182;2022-07-03T09:41:10;1.07;;;0.97;;
4313;SDS011;2170;48.794;9.182;2022-07-03T09:43:40;1.00;;;1.00;;
4313;SDS011;2170;48.794;9.182;2022-07-03T09:46:08;1.73;;;1.00;;
4313;SDS011;2170;48.794;9.182;2022-07-03T09:48:35;0.80;;;0.80;;
4313;SDS011;2170;48.794;9.182;2022-07-03T09:51:10;0.83;;;0.83;;
4313;SDS011;2170;48.794;9.182;2022-07-03T09:53:48;0.87;;;0.87;;
4313;SDS011;2170;48.794;9.182;2022-07-03T09:56:16;1.07;;;1.07;;
4313;SDS011;2170;48.794;9.182;2022-07-03T09:58:59;1.10;;;1.00;;
4313;SDS011;2170;48.794;9.182;2022-07-03T10:01:26;0.67;;;0.67;;
4313;SDS011;2170;48.794;9.182;2022-07-03T10:03:54;0.93;;;0.93;;
4313;SDS011;2170;48.794;9.182;2022-07-03T10:06:22;1.03;;;0.90;;
4313;SDS011;2170;48.794;9.182;2022-07-03T10:08:49;1.03;;;0.77;;
4313;SDS011;2170;48.794;9.182;2022-07-03T10:11:17;1.03;;;1.00;;
4313;SDS011;2170;48.794;9.182;2022-07-03T10:13:44;0.80;;;0.80;;
4313;SDS011;2170;48.794;9.182;2022-07-03T10:16:12;1.10;;;1.10;;
4313;SDS011;2170;48.794;9.182;2022-07-03T10:18:39;0.87;;;0.87;;
4313;SDS011;2170;48.794;9.182;2022-07-03T10:21:13;1.00;;;1.00;;
4313;SDS011;2170;48.794;9.182;2022-07-03T10:23:42;0.90;;;0.90;;
4313;SDS011;2170;48.794;9.182;2022-07-03T10:26:09;0.80;;;0.80;;
4313;SDS011;2170;48.794;9.182;2022-07-03T10:28:37;0.87;;;0.87;;
4313;SDS011;2170;48.794;9.182;2022-07-03T10:31:04;1.20;;;1.10;;
4313;SDS011;2170;48.794;9.182;2022-07-03T10:33:31;1.00;;;1.00;;
4313;SDS011;2170;48.794;9.182;2022-07-03T10:36:01;1.50;;;1.13;;
4313;SDS011;2170;48.794;9.182;2022-07-03T10:38:34;0.90;;;0.90;;
4313;SDS011;2170;48.794;9.182;2022-07-03T10:41:04;1.87;;;0.80;;
4313;SDS011;2170;48.794;9.182;2022-07-03T10:43:50;1.03;;;1.00;;
4313;SDS011;2170;48.794;9.182;2022-07-03T10:46:35;0.93;;;0.93;;
4313;SDS011;2170;48.794;9.182;2022-07-03T10:49:04;1.17;;;1.00;;
4313;SDS011;2170;48.794;9.182;2022-07-03T10:51:32;1.23;;;0.90;;
4313;SDS011;2170;48.794;9.182;2022-07-03T10:54:17;1.30;;;1.07;;
4313;SDS011;2170;48.794;9.182;2022-07-03T11:02:21;1.17;;;1.03;;
4313;SDS011;2170;48.794;9.182;2022-07-03T11:07:34;1.70;;;1.10;;
4313;SDS011;2170;48.794;9.182;2022-07-03T11:12:53;0.70;;;0.70;;
4313;SDS011;2170;48.794;9.182;2022-07-03T11:15:24;1.50;;;0.97;;
4313;SDS011;2170;48.794;9.182;2022-07-03T11:21:07;1.50;;;0.90;;
4313;SDS011;2170;48.794;9.182;2022-07-03T11:23:38;2.10;;;1.10;;
4313;SDS011;2170;48.794;9.182;2022-07-03T11:26:19;1.00;;;1.00;;
4313;SDS011;2170;48.794;9.182;2022-07-03T11:28:47;0.93;;;0.93;;
4313;SDS011;2170;48.794;9.182;2022-07-03T11:31:18;0.80;;;0.80;;
4313;SDS011;2170;48.794;9.182;2022-07-03T11:33:47;1.23;;;0.83;;
4313;SDS011;2170;48.794;9.182;2022-07-03T11:36:24;0.90;;;0.90;;
4313;SDS011;2170;48.794;9.182;2022-07-03T11:39:07;0.90;;;0.80;;
4313;SDS011;2170;48.794;9.182;2022-07-03T11:41:42;0.87;;;0.87;;
4313;SDS011;2170;48.794;9.182;2022-07-03T11:44:09;1.00;;;1.00;;
4313;SDS011;2170;48.794;9.182;2022-07-03T11:46:37;1.57;;;0.83;;
4313;SDS011;2170;48.794;9.182;2022-07-03T11:49:04;1.33;;;1.00;;
4313;SDS011;2170;48.794;9.182;2022-07-03T11:51:33;1.10;;;1.10;;
4313;SDS011;2170;48.794;9.182;2022-07-03T11:54:01;1.80;;;1.00;;
4313;SDS011;2170;48.794;9.182;2022-07-03T11:56:28;0.73;;;0.73;;
4313;SDS011;2170;48.794;9.182;2022-07-03T11:58:56;1.20;;;1.10;;
4313;SDS011;2170;48.794;9.182;2022-07-03T12:01:27;0.90;;;0.90;;
4313;SDS011;2170;48.794;9.182;2022-07-03T12:04:02;1.10;;;1.00;;
4313;SDS011;2170;48.794;9.182;2022-07-03T12:06:34;1.20;;;1.10;;
4313;SDS011;2170;48.794;9.182;2022-07-03T12:09:01;0.70;;;0.70;;
4313;SDS011;2170;48.794;9.182;2022-07-03T12:11:28;1.40;;;0.80;;
4313;SDS011;2170;48.794;9.182;2022-07-03T12:13:55;2.60;;;1.23;;
4313;SDS011;2170;48.794;9.182;2022-07-03T12:16:27;0.80;;;0.80;;
4313;SDS011;2170;48.794;9.182;2022-07-03T12:19:02;1.10;;;1.00;;
4313;SDS011;2170;48.794;9.182;2022-07-03T12:21:34;1.17;;;0.97;;
4313;SDS011;2170;48.794;9.182;2022-07-03T12:24:08;1.10;;;1.00;;
4313;SDS011;2170;48.794;9.182;2022-07-03T12:26:35;1.20;;;1.20;;
4313;SDS011;2170;48.794;9.182;2022-07-03T12:29:02;0.80;;;0.80;;
4313;SDS011;2170;48.794;9.182;2022-07-03T12:31:30;1.20;;;1.10;;
4313;SDS011;2170;48.794;9.182;2022-07-03T12:33:58;1.00;;;0.83;;
4313;SDS011;2170;48.794;9.182;2022-07-03T12:36:25;1.00;;;1.00;;
4313;SDS011;2170;48.794;9.182;2022-07-03T12:38:52;1.10;;;1.10;;
4313;SDS011;2170;48.794;9.182;2022-07-03T12:41:21;1.93;;;0.90;;
4313;SDS011;2170;48.794;9.182;2022-07-03T12:43:49;1.10;;;1.00;;
4313;SDS011;2170;48.794;9.182;2022-07-03T12:46:20;1.00;;;1.00;;
4313;SDS011;2170;48.794;9.182;2022-07-03T12:48:48;0.87;;;0.87;;
4313;SDS011;2170;48.794;9.182;2022-07-03T12:51:15;1.10;;;1.00;;
4313;SDS011;2170;48.794;9.182;2022-07-03T12:53:42;3.03;;;1.03;;
4313;SDS011;2170;48.794;9.182;2022-07-03T12:56:10;1.10;;;1.10;;
4313;SDS011;2170;48.794;9.182;2022-07-03T12:58:39;1.43;;;1.00;;
4313;SDS011;2170;48.794;9.182;2022-07-03T13:01:24;1.20;;;1.10;;
4313;SDS011;2170;48.794;9.182;2022-07-03T13:03:52;0.93;;;0.93;;
4313;SDS011;2170;48.794;9.182;2022-07-03T13:06:20;0.90;;;0.90;;
4313;SDS011;2170;48.794;9.182;2022-07-03T13:08:52;3.53;;;1.10;;
4313;SDS011;2170;48.794;9.182;2022-07-03T13:11:26;1.37;;;1.10;;
4313;SDS011;2170;48.794;9.182;2022-07-03T13:14:00;1.80;;;1.30;;
4313;SDS011;2170;48.794;9.182;2022-07-03T13:16:27;0.97;;;0.97;;
4313;SDS011;2170;48.794;9.182;2022-07-03T13:18:57;1.60;;;1.50;;
4313;SDS011;2170;48.794;9.182;2022-07-03T13:21:24;1.20;;;0.93;;
4313;SDS011;2170;48.794;9.182;2022-07-03T13:23:51;1.00;;;1.00;;
4313;SDS011;2170;48.794;9.182;2022-07-03T13:26:18;1.00;;;1.00;;
4313;SDS011;2170;48.794;9.182;2022-07-03T13:28:46;1.10;;;1.10;;
4313;SDS011;2170;48.794;9.182;2022-07-03T13:31:14;1.53;;;1.07;;
4313;SDS011;2170;48.794;9.182;2022-07-03T13:33:41;1.10;;;1.10;;
4313;SDS011;2170;48.794;9.182;2022-07-03T13:36:08;0.90;;;0.90;;
4313;SDS011;2170;48.794;9.182;2022-07-03T13:38:35;0.87;;;0.87;;
4313;SDS011;2170;48.794;9.182;2022-07-03T13:41:02;1.67;;;1.10;;
4313;SDS011;2170;48.794;9.182;2022-07-03T13:43:29;3.43;;;1.37;;
4313;SDS011;2170;48.794;9.182;2022-07-03T13:45:56;6.50;;;1.30;;
4313;SDS011;2170;48.794;9.182;2022-07-03T13:48:24;1.80;;;0.93;;
4313;SDS011;2170;48.794;9.182;2022-07-03T13:50:51;1.27;;;1.20;;
4313;SDS011;2170;48.794;9.182;2022-07-03T13:53:18;2.40;;;1.73;;
4313;SDS011;2170;48.794;9.182;2022-07-03T13:55:45;1.13;;;1.10;;
4313;SDS011;2170;48.794;9.182;2022-07-03T13:58:12;7.00;;;1.70;;
4313;SDS011;2170;48.794;9.182;2022-07-03T14:00:39;1.60;;;1.20;;
4313;SDS011;2170;48.794;9.182;2022-07-03T14:03:06;1.77;;;1.67;;
4313;SDS011;2170;48.794;9.182;2022-07-03T14:05:35;1.33;;;1.23;;
4313;SDS011;2170;48.794;9.182;2022-07-03T14:08:02;1.10;;;1.00;;
4313;SDS011;2170;48.794;9.182;2022-07-03T14:10:29;1.20;;;1.10;;
4313;SDS011;2170;48.794;9.182;2022-07-03T14:12:56;1.00;;;1.00;;
4313;SDS011;2170;48.794;9.182;2022-07-03T14:15:23;1.73;;;0.90;;
4313;SDS011;2170;48.794;9.182;2022-07-03T14:17:50;1.10;;;1.10;;
4313;SDS011;2170;48.794;9.182;2022-07-03T14:20:17;1.37;;;1.27;;
4313;SDS011;2170;48.794;9.182;2022-07-03T14:22:45;2.73;;;1.30;;
4313;SDS011;2170;48.794;9.182;2022-07-03T14:25:12;3.10;;;1.07;;
4313;SDS011;2170;48.794;9.182;2022-07-03T14:27:39;1.30;;;1.20;;
4313;SDS011;2170;48.794;9.182;2022-07-03T14:30:24;1.50;;;1.40;;
4313;SDS011;2170;48.794;9.182;2022-07-03T14:33:09;2.53;;;1.30;;
4313;SDS011;2170;48.794;9.182;2022-07-03T14:35:36;1.20;;;1.10;;
4313;SDS011;2170;48.794;9.182;2022-07-03T14:38:04;1.23;;;1.20;;
4313;SDS011;2170;48.794;9.182;2022-07-03T14:40:31;1.77;;;1.07;;
4313;SDS011;2170;48.794;9.182;2022-07-03T14:42:58;1.30;;;1.17;;
4313;SDS011;2170;48.794;9.182;2022-07-03T14:45:25;1.60;;;1.50;;
4313;SDS011;2170;48.794;9.182;2022-07-03T14:47:52;1.13;;;1.10;;
4313;SDS011;2170;48.794;9.182;2022-07-03T14:50:19;1.10;;;1.10;;
4313;SDS011;2170;48.794;9.182;2022-07-03T14:52:46;0.90;;;0.90;;
4313;SDS011;2170;48.794;9.182;2022-07-03T14:55:15;1.20;;;1.20;;
4313;SDS011;2170;48.794;9.182;2022-07-03T14:57:49;1.60;;;1.10;;
4313;SDS011;2170;48.794;9.182;2022-07-03T15:00:16;1.37;;;1.27;;
4313;SDS011;2170;48.794;9.182;2022-07-03T15:02:47;1.23;;;1.13;;
4313;SDS011;2170;48.794;9.182;2022-07-03T15:05:15;1.40;;;1.30;;
4313;SDS011;2170;48.794;9.182;2022-07-03T15:07:43;1.37;;;1.23;;
4313;SDS011;2170;48.794;9.182;2022-07-03T15:10:11;6.77;;;1.27;;
4313;SDS011;2170;48.794;9.182;2022-07-03T15:12:43;1.43;;;1.30;;
4313;SDS011;2170;48.794;9.182;2022-07-03T15:15:10;1.10;;;1.00;;
4313;SDS011;2170;48.794;9.182;2022-07-03T15:17:37;1.50;;;1.40;;
4313;SDS011;2170;48.794;9.182;2022-07-03T15:20:05;2.70;;;1.37;;
4313;SDS011;2170;48.794;9.182;2022-07-03T15:22:35;2.97;;;0.90;;
4313;SDS011;2170;48.794;9.182;2022-07-03T15:25:06;1.30;;;1.20;;
4313;SDS011;2170;48.794;9.182;2022-07-03T15:27:33;1.23;;;1.13;;
4313;SDS011;2170;48.794;9.182;2022-07-03T15:30:02;1.10;;;1.10;;
4313;SDS011;2170;48.794;9.182;2022-07-03T15:32:29;1.10;;;1.10;;
4313;SDS011;2170;48.794;9.182;2022-07-03T15:34:57;1.00;;;0.90;;
4313;SDS011;2170;48.794;9.182;2022-07-03T15:37:27;1.33;;;1.10;;
4313;SDS011;2170;48.794;9.182;2022-07-03T15:39:59;1.20;;;1.10;;